»·PEaware :: SWA867 KATL-KDCA

SWA867 :: KATL-KDCA

FLIGHT INFORMATION

Flight Status: Arrived
Operator:
Southwest Airlines
More flights by this operator :: More flights under this callsign
Pilot: Jamyson D. (13674)
Aircraft: BOEING 737-800
(B738)
More flights by this aircraft type
Origin: KATL Hartsfield-Jackson Atlanta
United States
Destination: KDCA Ronald Reagan Washington Natl
United States
More flights between these airports :: More routes between these airports
Route: JACCC2 KELLN Q56 KIWII WAVES CAPSS2
File this flight plan on PilotEdge
Remarks:
Altitude:
(Current/Filed)
37,000ft
Speed:
(Current/Filed)
434kts
Departed: 13-Feb-18 12:21 AM
Arrived: 13-Feb-18 01:20 AM
Distance/Time
Traveled:
474nm/0:59
Distance/Time
To Go:
Arrived

Flight Plot

Page will automatically refresh every two minutes.

Flight plan parsing failed; only flown route is shown


Map Options




Map Legend


Flown Route
Filed Route
Departure Airport
Arrival Airport
Navaid (VOR, NDB)
Fix

Horizontal Profiles

Position Reports

Time Latitude Longitude Heading Altitude Ground
Speed
13-Feb-18 00:27 34.155719 -82.906653 55 31248ft 514kts
13-Feb-18 00:28 34.217682 -82.787838 56 32381ft 520kts
13-Feb-18 00:29 34.293697 -82.641534 56 33999ft 519kts
13-Feb-18 00:30 34.367508 -82.498945 56 35493ft 517kts
13-Feb-18 00:31 34.442796 -82.352904 56 36814ft 515kts
13-Feb-18 00:32 34.505526 -82.216380 60 37581ft 510kts
13-Feb-18 00:33 34.583387 -82.075593 51 37567ft 514kts
13-Feb-18 00:34 34.666131 -81.937941 51 37597ft 513kts
13-Feb-18 00:35 34.749154 -81.799201 51 37607ft 513kts
13-Feb-18 00:36 34.832186 -81.660650 51 37610ft 513kts
13-Feb-18 00:37 34.914423 -81.523672 51 37611ft 514kts
13-Feb-18 00:38 34.996259 -81.387589 50 37608ft 514kts
13-Feb-18 00:39 35.072783 -81.260753 50 37593ft 515kts
13-Feb-18 00:40 35.149264 -81.134099 50 37591ft 515kts
13-Feb-18 00:41 35.230806 -80.997951 51 37609ft 523kts
13-Feb-18 00:42 35.313638 -80.855598 51 37640ft 531kts
13-Feb-18 00:43 35.398205 -80.710228 51 37654ft 530kts
13-Feb-18 00:44 35.483682 -80.563608 51 37654ft 530kts
13-Feb-18 00:45 35.568256 -80.418824 51 37644ft 530kts
13-Feb-18 00:46 35.642212 -80.292569 51 37628ft 530kts
13-Feb-18 00:47 35.718760 -80.162113 51 37630ft 530kts
13-Feb-18 00:48 35.802593 -80.018227 52 37633ft 530kts
13-Feb-18 00:49 35.885092 -79.873992 52 37635ft 530kts
13-Feb-18 00:50 35.967885 -79.731330 50 37642ft 530kts
13-Feb-18 00:51 36.050434 -79.589949 51 37651ft 530kts
13-Feb-18 00:52 36.131601 -79.451007 50 37644ft 530kts
13-Feb-18 00:53 36.205744 -79.323672 51 37654ft 541kts
13-Feb-18 00:54 36.285187 -79.185932 51 37669ft 540kts
13-Feb-18 00:55 36.369912 -79.039044 52 37674ft 547kts
13-Feb-18 00:56 36.457025 -78.888267 52 37674ft 551kts
13-Feb-18 00:57 36.543897 -78.735704 52 37671ft 550kts
13-Feb-18 00:58 36.639471 -78.597377 38 37688ft 545kts
13-Feb-18 00:59 36.746844 -78.468265 40 37689ft 546kts
13-Feb-18 01:00 36.850208 -78.342229 41 37710ft 546kts
13-Feb-18 01:01 36.955418 -78.214167 40 37679ft 536kts
13-Feb-18 01:02 37.058852 -78.088234 39 36120ft 522kts
13-Feb-18 01:03 37.156484 -77.969549 38 33785ft 519kts
13-Feb-18 01:04 37.254018 -77.851141 38 31459ft 517kts
13-Feb-18 01:05 37.353805 -77.730057 38 29006ft 493kts
13-Feb-18 01:06 37.448060 -77.615875 37 26580ft 469kts
13-Feb-18 01:07 37.537716 -77.507396 37 24179ft 448kts
13-Feb-18 01:08 37.636197 -77.433962 6 21897ft 396kts
13-Feb-18 01:09 37.737989 -77.401399 5 20112ft 373kts
13-Feb-18 01:10 37.836419 -77.370872 5 18404ft 364kts
13-Feb-18 01:11 37.928679 -77.342361 6 16628ft 357kts
13-Feb-18 01:12 38.022841 -77.313355 6 14424ft 340kts
13-Feb-18 01:13 38.111975 -77.285689 7 12876ft 333kts
13-Feb-18 01:14 38.187539 -77.261925 7 11565ft 324kts
13-Feb-18 01:15 38.269859 -77.235804 8 10133ft 301kts
13-Feb-18 01:16 38.340016 -77.210514 27 8898ft 260kts
13-Feb-18 01:17 38.394440 -77.149899 36 7801ft 257kts
13-Feb-18 01:18 38.444826 -77.092885 37 6774ft 250kts
13-Feb-18 01:19 38.495427 -77.035657 38 5296ft 238kts
13-Feb-18 01:20 38.549047 -77.008855 356 3692ft 205kts
13-Feb-18 01:21 38.604762 -77.012840 354 3477ft 204kts
13-Feb-18 01:22 38.658523 -77.018275 354 3501ft 186kts
13-Feb-18 01:23 38.708042 -77.023274 354 2654ft 174kts
13-Feb-18 01:24 38.753160 -77.027818 355 1783ft 158kts
13-Feb-18 01:25 38.787183 -77.031244 355 1128ft 138kts
13-Feb-18 01:26 38.823837 -77.034946 355 421ft 134kts
13-Feb-18 01:27 38.852646 -77.038544 257 22ft 2kts
13-Feb-18 01:28 38.852606 -77.039350 262 22ft 1kts
13-Feb-18 01:29 38.851069 -77.039776 177 22ft 18kts
13-Feb-18 01:30 38.846660 -77.040254 214 22ft 9kts
13-Feb-18 01:31 38.846660 -77.041567 299 22ft 5kts
13-Feb-18 01:32 38.846798 -77.041894 298 22ft 0kts
13-Feb-18 01:33 38.846798 -77.041894 298 22ft 0kts
13-Feb-18 01:34 38.846798 -77.041894 298 22ft 0kts
13-Feb-18 01:35 38.846798 -77.041894 298 22ft 0kts
13-Feb-18 01:36 38.846798 -77.041894 298 22ft 0kts
13-Feb-18 01:37 38.846798 -77.041894 298 22ft 0kts
13-Feb-18 01:38 38.846798 -77.041894 298 22ft 0kts
13-Feb-18 01:39 38.846798 -77.041894 298 22ft 0kts
13-Feb-18 01:40 38.846798 -77.041894 298 22ft 0kts
13-Feb-18 01:41 38.846798 -77.041894 298 22ft 0kts

Navigation Log

Ident Type
Flight plan parsing failed, navigation log unavailable